Startpagina
METAR-TAF:

METAR-TAF

Vliegvelden :

Koeweit, Koeweit

breedte: 29-13N, lengte: 047-59E, hoogte: 55 m

Actueel weer

Dit bericht is 30 minuten geleden gemaakt, om 17:00 UTC
Wind 11 kt uit het noorden
Temperatuur 18°C
Vochtigheid 39%
Druk 1019 hPa
Zicht 10 km of meer
geen wolken onder 1500 m en geen cumulonimbus

METAR: OKBK 261700Z 35011KT CAVOK 18/04 Q1019 NOSIG

Tijdstip: 20:30 (17:30 UTC)

Verwachting

Dit bericht is 6 uur en het 45 minuten geleden gemaakt, om 10:45 UTC
Verwachting geldig van 26 om 12 UTC tot 27 om 18 UTC
Wind 15 kt uit het noordnoordwesten met uitschieters tot 25 kt
Zicht: 6000 m
Tijdelijke
van 26 om 12 UTC tot 26 om 15 UTC
Zicht: 2000 m
Stuifstof

TAF: OKBK 261045Z 2612/2718 33015G25KT 6000 NSC TEMPO 2612/2615 2000 BLDU

Waarnemingen en weersverwachtingen van meer dan 4000 vliegvelden (METAR en TAF).

De beschikbare stations zijn de gele en rode punten op de kaart.

Ga met uw muis naar het station om de naam te zien.

Klik dan om waarnemingen en weersverwachtingen te zien.

kaart wijzigen: klik op de groene knoppen met een zwart kruis om in te zoomen, op de groene knop met een streepje om uit te zoomen of op de groene pijlen voor aangrenzende kaarten.


METAR-TAF: